Time;durP1;ratioP1;P1;durP2;ratioP2;P2;SDS_P1;SDS_P2;PMS_P1;PMS_P2;Temp;Humidity;BMP_temperature;BMP_pressure;BME280_temperature;BME280_humidity;BME280_pressure;Samples;Min_cycle;Max_cycle;Signal;HPM_P1;HPM_P2
2022/05/13 00:00:09;;;;;;;0.32;0.32;;;12.20;99.90;;;;;;5022621;28;20041;-78
2022/05/13 00:02:35;;;;;;;0.40;0.40;;;12.10;99.90;;;;;;5021175;28;20151;-78
2022/05/13 00:05:06;;;;;;;0.73;0.73;;;12.10;99.90;;;;;;5047169;28;20101;-79
2022/05/13 00:07:32;;;;;;;0.50;0.50;;;12.10;99.90;;;;;;5029722;28;20123;-78
2022/05/13 00:09:59;;;;;;;0.30;0.30;;;12.20;99.90;;;;;;5042293;28;20087;-79
2022/05/13 00:12:30;;;;;;;0.30;0.30;;;12.10;99.90;;;;;;5029703;28;20368;-80
2022/05/13 00:14:57;;;;;;;0.30;0.30;;;12.10;99.90;;;;;;5033419;28;20041;-79
2022/05/13 00:17:24;;;;;;;0.30;0.30;;;12.10;99.90;;;;;;5020314;28;20478;-76
2022/05/13 00:19:53;;;;;;;0.45;0.45;;;12.10;99.90;;;;;;5053644;28;20119;-81
2022/05/13 00:22:19;;;;;;;0.55;0.55;;;12.10;99.90;;;;;;5054886;28;20033;-79
2022/05/13 00:24:45;;;;;;;;;;;12.10;99.90;;;;;;5042308;28;20049;-78
2022/05/13 00:27:11;;;;;;;0.40;0.40;;;12.10;99.90;;;;;;5036214;28;20092;-79
2022/05/13 00:29:37;;;;;;;0.30;0.30;;;12.10;99.90;;;;;;5011045;28;20037;-77
2022/05/13 00:32:03;;;;;;;0.65;0.65;;;12.10;99.90;;;;;;5027948;28;20038;-79
2022/05/13 00:34:29;;;;;;;0.35;0.35;;;12.10;99.90;;;;;;5043645;28;20052;-78
2022/05/13 00:36:55;;;;;;;0.30;0.30;;;12.00;99.90;;;;;;5042403;28;20050;-79
2022/05/13 00:39:20;;;;;;;0.30;0.30;;;12.00;99.90;;;;;;5008218;28;20037;-78
2022/05/13 00:41:46;;;;;;;0.30;0.30;;;12.00;99.90;;;;;;5013992;28;20155;-78
2022/05/13 00:44:13;;;;;;;;;;;12.00;99.90;;;;;;5049028;28;20041;-80
2022/05/13 00:46:38;;;;;;;0.40;0.40;;;12.00;99.90;;;;;;5033867;28;20024;-78
2022/05/13 00:49:14;;;;;;;0.50;0.50;;;12.00;99.90;;;;;;5029156;28;20057;-80
2022/05/13 00:51:45;;;;;;;0.40;0.40;;;12.00;99.90;;;;;;5027950;28;20052;-80
2022/05/13 00:54:13;;;;;;;0.40;0.40;;;12.00;99.90;;;;;;5031280;28;20424;-78
2022/05/13 00:56:45;;;;;;;0.55;0.55;;;12.00;99.90;;;;;;5051892;28;20051;-77
2022/05/13 00:59:18;;;;;;;0.40;0.40;;;12.00;99.90;;;;;;5014510;28;20184;-77
2022/05/13 01:01:44;;;;;;;0.30;0.30;;;12.10;99.90;;;;;;5017058;28;20037;-80
2022/05/13 01:04:12;;;;;;;0.40;0.40;;;12.10;99.90;;;;;;5037338;28;20037;-79
2022/05/13 01:06:41;;;;;;;1.27;0.65;;;12.10;99.90;;;;;;5036136;28;20748;-78
2022/05/13 01:09:07;;;;;;;0.30;0.30;;;12.10;99.90;;;;;;5028423;28;20068;-77
2022/05/13 01:11:36;;;;;;;0.40;0.40;;;12.10;99.90;;;;;;5066477;28;20033;-80
2022/05/13 01:14:06;;;;;;;0.50;0.50;;;12.10;99.90;;;;;;5027178;28;20033;-79
2022/05/13 01:18:05;;;;;;;0.30;0.30;;;12.10;99.90;;;;;;5035081;28;20041;-76
2022/05/13 01:19:18;;;;;;;0.30;0.30;;;12.10;99.90;;;;;;5053204;28;20064;-77
2022/05/13 01:21:47;;;;;;;0.30;0.30;;;12.10;99.90;;;;;;5033113;28;20061;-77
2022/05/13 01:24:13;;;;;;;0.68;0.50;;;12.10;99.90;;;;;;5044437;28;20083;-78
2022/05/13 01:26:39;;;;;;;0.45;0.45;;;12.10;99.90;;;;;;5001645;28;20069;-79
2022/05/13 01:29:05;;;;;;;1.65;1.15;;;12.10;99.90;;;;;;5028210;28;20048;-80
2022/05/13 01:31:33;;;;;;;0.50;0.50;;;12.00;99.90;;;;;;5062232;28;20352;-79
2022/05/13 01:34:01;;;;;;;0.40;0.40;;;12.00;99.90;;;;;;5030756;28;20094;-78
2022/05/13 01:36:28;;;;;;;0.30;0.30;;;12.00;99.90;;;;;;5018957;28;20052;-78
2022/05/13 01:38:55;;;;;;;0.40;0.40;;;12.00;99.90;;;;;;5029408;28;20049;-79
2022/05/13 01:41:22;;;;;;;0.50;0.50;;;12.00;99.90;;;;;;5026051;28;20048;-78
2022/05/13 01:43:49;;;;;;;0.40;0.40;;;12.00;99.90;;;;;;5027564;28;20045;-80
2022/05/13 01:46:18;;;;;;;0.73;0.70;;;12.00;99.90;;;;;;5052941;28;20037;-77
2022/05/13 01:48:45;;;;;;;0.70;0.70;;;12.00;99.90;;;;;;5034558;28;20048;-77
2022/05/13 01:51:10;;;;;;;0.38;0.38;;;12.00;99.90;;;;;;5031796;28;20053;-76
2022/05/13 01:53:37;;;;;;;0.40;0.40;;;12.00;99.90;;;;;;5031969;28;20366;-78
2022/05/13 01:56:03;;;;;;;0.47;0.47;;;12.00;99.90;;;;;;5065446;28;20038;-77
2022/05/13 01:58:28;;;;;;;0.40;0.40;;;12.00;99.90;;;;;;5016714;28;20171;-78
2022/05/13 02:00:57;;;;;;;0.95;0.95;;;11.90;99.90;;;;;;5025414;28;20041;-81
2022/05/13 02:06:08;;;;;;;0.30;0.30;;;11.90;99.90;;;;;;5044123;28;20102;-81
2022/05/13 02:08:35;;;;;;;0.45;0.45;;;11.90;99.90;;;;;;5045459;28;20037;-78
2022/05/13 02:11:01;;;;;;;1.17;1.17;;;11.90;99.90;;;;;;5036258;28;20382;-77
2022/05/13 02:13:27;;;;;;;0.30;0.30;;;11.90;99.90;;;;;;5052261;28;20049;-80
2022/05/13 02:15:55;;;;;;;0.40;0.40;;;11.90;99.90;;;;;;5060764;28;20124;-78
2022/05/13 02:18:21;;;;;;;0.57;0.57;;;11.90;99.90;;;;;;5027381;28;20041;-77
2022/05/13 02:20:47;;;;;;;;;;;11.90;99.90;;;;;;5041674;28;20041;-80
2022/05/13 02:23:13;;;;;;;0.30;0.30;;;11.90;99.90;;;;;;5050600;28;20048;-81
2022/05/13 02:25:39;;;;;;;0.40;0.40;;;11.90;99.90;;;;;;5055930;28;20044;-78
2022/05/13 02:28:06;;;;;;;0.38;0.38;;;12.00;99.90;;;;;;5047667;28;20038;-79
2022/05/13 02:30:33;;;;;;;0.40;0.40;;;11.90;99.90;;;;;;5062128;28;20095;-78
2022/05/13 02:32:59;;;;;;;0.43;0.43;;;11.90;99.90;;;;;;5053543;28;20030;-79
2022/05/13 02:35:25;;;;;;;0.50;0.50;;;11.90;99.90;;;;;;5030193;28;20398;-77
2022/05/13 02:37:52;;;;;;;0.32;0.32;;;11.90;99.90;;;;;;5039644;28;20363;-76
2022/05/13 02:40:19;;;;;;;2.03;1.23;;;11.90;99.90;;;;;;5051630;28;20123;-78
2022/05/13 02:42:44;;;;;;;0.40;0.40;;;11.90;99.90;;;;;;5049689;28;20127;-79
2022/05/13 02:45:10;;;;;;;0.47;0.47;;;12.00;99.90;;;;;;5016931;28;20128;-78
2022/05/13 02:47:37;;;;;;;0.40;0.40;;;11.90;99.90;;;;;;5047119;28;20371;-77
2022/05/13 02:50:21;;;;;;;0.30;0.30;;;12.00;99.90;;;;;;5037458;28;20053;-79
2022/05/13 02:52:48;;;;;;;1.27;0.55;;;11.90;99.90;;;;;;5067775;28;20044;-79
2022/05/13 02:55:13;;;;;;;0.20;0.20;;;11.90;99.90;;;;;;5051235;28;20076;-79
2022/05/13 02:57:40;;;;;;;0.35;0.35;;;11.90;99.90;;;;;;5021681;28;20061;-79
2022/05/13 03:00:07;;;;;;;1.40;1.00;;;11.90;99.90;;;;;;5051062;28;20515;-78
2022/05/13 03:02:33;;;;;;;0.40;0.40;;;11.90;99.90;;;;;;5049180;28;20104;-77
2022/05/13 03:04:59;;;;;;;0.30;0.30;;;11.90;99.90;;;;;;5029088;28;20502;-78
2022/05/13 03:07:25;;;;;;;0.32;0.32;;;11.90;99.90;;;;;;5024259;28;20038;-78
2022/05/13 03:09:51;;;;;;;0.40;0.40;;;11.90;99.90;;;;;;5045967;28;20120;-76
2022/05/13 03:12:17;;;;;;;2.05;1.85;;;11.90;99.90;;;;;;5043218;28;20049;-78
2022/05/13 03:14:42;;;;;;;1.00;1.00;;;11.90;99.90;;;;;;5047537;28;20061;-78
2022/05/13 03:17:08;;;;;;;0.32;0.32;;;11.90;99.90;;;;;;5035257;28;20053;-79
2022/05/13 03:19:40;;;;;;;0.73;0.52;;;11.90;99.90;;;;;;5034309;28;20127;-78
2022/05/13 03:22:07;;;;;;;0.60;0.60;;;12.00;99.90;;;;;;5041648;28;20128;-76
2022/05/13 03:24:33;;;;;;;0.43;0.43;;;12.00;99.90;;;;;;5038649;28;20516;-80
2022/05/13 03:27:00;;;;;;;0.65;0.65;;;11.90;99.90;;;;;;5051405;28;20738;-78
2022/05/13 03:29:25;;;;;;;;;;;12.00;99.90;;;;;;5020265;28;20029;-77
2022/05/13 03:31:51;;;;;;;1.70;1.60;;;11.90;99.90;;;;;;5039378;28;20019;-80
2022/05/13 03:34:17;;;;;;;0.65;0.65;;;11.90;99.90;;;;;;5027260;28;20052;-77
2022/05/13 03:36:42;;;;;;;0.30;0.30;;;11.90;99.90;;;;;;5048706;28;20516;-77
2022/05/13 03:39:08;;;;;;;0.93;0.93;;;11.90;99.90;;;;;;5012917;28;20391;-77
2022/05/13 03:41:34;;;;;;;0.30;0.30;;;11.90;99.90;;;;;;5042717;28;20055;-78
2022/05/13 03:44:00;;;;;;;;;;;11.90;99.90;;;;;;5029446;28;20050;-79
2022/05/13 03:46:31;;;;;;;0.60;0.60;;;11.90;99.90;;;;;;5049382;28;20006;-76
2022/05/13 03:48:57;;;;;;;0.45;0.45;;;11.90;99.90;;;;;;5036563;28;20076;-78
2022/05/13 03:51:23;;;;;;;0.30;0.30;;;11.90;99.90;;;;;;5055933;28;20049;-78
2022/05/13 03:53:48;;;;;;;;;;;11.90;99.90;;;;;;5048350;28;20059;-78
2022/05/13 03:56:14;;;;;;;0.40;0.40;;;11.90;99.90;;;;;;5040275;28;19928;-76
2022/05/13 03:58:39;;;;;;;0.40;0.40;;;11.90;99.90;;;;;;4998696;28;20088;-76
2022/05/13 04:01:06;;;;;;;1.10;1.00;;;11.90;99.90;;;;;;5052462;28;20057;-78
2022/05/13 04:03:32;;;;;;;;;;;11.90;99.90;;;;;;5032522;28;20328;-76
2022/05/13 04:08:58;;;;;;;0.50;0.50;;;11.90;99.90;;;;;;5032217;28;20038;-76
2022/05/13 04:11:33;;;;;;;0.30;0.30;;;11.80;99.90;;;;;;5032085;28;20467;-78
2022/05/13 04:16:46;;;;;;;12.57;2.38;;;11.80;99.90;;;;;;5035082;28;20041;-77
2022/05/13 04:19:13;;;;;;;0.20;0.20;;;11.80;99.90;;;;;;5022427;28;20075;-80
2022/05/13 04:21:40;;;;;;;0.30;0.30;;;11.80;99.90;;;;;;5046223;28;20119;-79
2022/05/13 04:24:10;;;;;;;0.60;0.60;;;11.80;99.90;;;;;;5042456;28;20045;-76
2022/05/13 04:26:36;;;;;;;0.20;0.20;;;11.80;99.90;;;;;;5036863;28;20071;-77
2022/05/13 04:29:03;;;;;;;0.40;0.40;;;11.80;99.90;;;;;;5025375;28;20079;-77
2022/05/13 04:31:38;;;;;;;1.55;0.65;;;11.90;99.90;;;;;;5046370;28;20029;-76
2022/05/13 04:34:08;;;;;;;1.13;0.50;;;11.90;99.90;;;;;;5033823;28;20042;-77
2022/05/13 04:36:35;;;;;;;0.47;0.47;;;11.90;99.90;;;;;;5039289;28;20100;-79
2022/05/13 04:39:01;;;;;;;0.30;0.30;;;11.90;99.90;;;;;;5033063;28;20045;-79
2022/05/13 04:44:12;;;;;;;4.82;1.67;;;12.00;99.90;;;;;;5048612;28;20012;-76
2022/05/13 04:46:38;;;;;;;0.30;0.30;;;12.00;99.90;;;;;;5061196;28;20040;-79
2022/05/13 04:49:04;;;;;;;;;;;12.00;99.90;;;;;;5048952;28;20052;-75
2022/05/13 04:51:31;;;;;;;0.38;0.38;;;12.00;99.90;;;;;;5017514;28;19921;-79
2022/05/13 04:54:02;;;;;;;0.55;0.55;;;12.10;99.90;;;;;;5048709;28;20458;-78
2022/05/13 04:56:31;;;;;;;0.60;0.60;;;12.10;99.90;;;;;;5053428;28;20056;-78
2022/05/13 04:58:58;;;;;;;0.55;0.55;;;12.20;99.90;;;;;;5038397;28;20119;-75
2022/05/13 05:01:25;;;;;;;0.40;0.40;;;12.20;99.90;;;;;;5037885;28;20087;-77
2022/05/13 05:03:51;;;;;;;0.30;0.30;;;12.20;99.90;;;;;;5039068;28;20530;-80
2022/05/13 05:06:17;;;;;;;;;;;12.20;99.90;;;;;;5053485;28;20040;-77
2022/05/13 05:08:44;;;;;;;0.30;0.30;;;12.30;99.90;;;;;;5023566;28;19928;-78
2022/05/13 05:11:12;;;;;;;0.40;0.40;;;12.30;99.90;;;;;;5017125;28;20409;-77
2022/05/13 05:13:41;;;;;;;0.32;0.32;;;12.40;99.90;;;;;;5050255;28;20065;-78
2022/05/13 05:16:07;;;;;;;0.73;0.73;;;12.40;99.90;;;;;;5062975;28;20040;-77
2022/05/13 05:18:34;;;;;;;0.73;0.50;;;12.50;99.90;;;;;;5031641;28;20061;-77
2022/05/13 05:21:01;;;;;;;0.40;0.40;;;12.60;99.90;;;;;;5018054;28;20037;-77
2022/05/13 05:23:32;;;;;;;1.77;1.25;;;12.60;99.90;;;;;;5041686;28;20130;-76
2022/05/13 05:25:59;;;;;;;0.70;0.70;;;12.70;99.90;;;;;;5039267;28;20056;-77
2022/05/13 05:28:26;;;;;;;0.57;0.55;;;12.80;99.90;;;;;;5015776;28;20053;-77
2022/05/13 05:30:53;;;;;;;0.50;0.50;;;12.80;99.90;;;;;;5045667;28;20118;-78
2022/05/13 05:33:20;;;;;;;0.80;0.80;;;12.90;99.90;;;;;;5041919;28;20344;-76
2022/05/13 05:35:46;;;;;;;0.40;0.40;;;12.90;99.90;;;;;;5056049;28;20045;-78
2022/05/13 05:38:13;;;;;;;0.30;0.30;;;13.00;99.90;;;;;;5045919;28;20064;-78
2022/05/13 05:40:40;;;;;;;2.05;0.35;;;13.00;99.90;;;;;;5039103;28;20037;-79
2022/05/13 05:43:13;;;;;;;0.65;0.65;;;13.10;99.90;;;;;;5023870;28;20108;-77
2022/05/13 05:45:40;;;;;;;0.30;0.30;;;13.20;99.90;;;;;;5047022;28;20037;-77
2022/05/13 05:48:08;;;;;;;0.55;0.50;;;13.20;99.90;;;;;;5046516;28;20485;-79
2022/05/13 05:50:34;;;;;;;0.50;0.50;;;13.20;99.90;;;;;;5013995;28;20396;-76
2022/05/13 05:53:01;;;;;;;0.40;0.40;;;13.20;99.90;;;;;;5025019;28;20052;-75
2022/05/13 05:58:19;;;;;;;0.35;0.35;;;13.20;99.90;;;;;;5045364;28;20045;-77
2022/05/13 06:00:48;;;;;;;0.30;0.30;;;13.10;99.90;;;;;;5038169;28;20119;-76
2022/05/13 06:03:14;;;;;;;0.30;0.30;;;13.10;99.90;;;;;;5064581;28;20046;-77
2022/05/13 06:05:41;;;;;;;0.30;0.30;;;13.20;99.90;;;;;;5013319;28;20073;-77
2022/05/13 06:08:08;;;;;;;0.40;0.40;;;13.10;99.90;;;;;;5030454;28;20045;-77
2022/05/13 06:10:35;;;;;;;0.40;0.40;;;13.20;99.90;;;;;;5036901;28;20069;-75
2022/05/13 06:13:02;;;;;;;1.05;1.05;;;13.20;99.90;;;;;;5033755;28;20049;-75
2022/05/13 06:15:28;;;;;;;0.30;0.30;;;13.20;99.90;;;;;;5021647;28;20128;-76
2022/05/13 06:17:56;;;;;;;0.20;0.20;;;13.20;99.90;;;;;;5044594;28;20504;-77
2022/05/13 06:20:28;;;;;;;0.32;0.32;;;13.20;99.90;;;;;;5033912;28;20103;-81
2022/05/13 06:22:54;;;;;;;0.40;0.40;;;13.30;99.90;;;;;;5038327;28;20232;-77
2022/05/13 06:25:20;;;;;;;;;;;13.30;99.90;;;;;;5041117;28;20508;-76
2022/05/13 06:27:47;;;;;;;0.40;0.40;;;13.40;99.90;;;;;;5053615;28;19917;-78
2022/05/13 06:30:22;;;;;;;0.40;0.40;;;13.30;99.90;;;;;;5064729;28;20116;-80
2022/05/13 06:32:47;;;;;;;0.32;0.32;;;13.40;99.90;;;;;;5031971;28;20083;-77
2022/05/13 06:35:13;;;;;;;0.75;0.75;;;13.40;99.90;;;;;;5031502;28;20065;-78
2022/05/13 06:37:39;;;;;;;0.32;0.32;;;13.50;99.90;;;;;;5000995;28;20049;-78
2022/05/13 06:40:08;;;;;;;0.55;0.47;;;13.60;99.90;;;;;;5032336;28;20050;-77
2022/05/13 06:42:36;;;;;;;0.38;0.38;;;13.70;99.90;;;;;;5062962;28;20106;-77
2022/05/13 06:45:02;;;;;;;0.35;0.35;;;13.80;99.90;;;;;;5050997;28;20219;-79
2022/05/13 06:47:28;;;;;;;0.50;0.50;;;13.80;99.90;;;;;;5043376;28;20041;-77
2022/05/13 06:49:54;;;;;;;6.68;0.80;;;13.90;99.90;;;;;;5042904;28;20106;-76
2022/05/13 06:52:19;;;;;;;;;;;14.00;99.90;;;;;;5016894;28;20495;-78
2022/05/13 06:54:48;;;;;;;0.20;0.20;;;14.10;99.90;;;;;;5028477;28;20421;-75
2022/05/13 06:57:17;;;;;;;4.57;0.93;;;14.20;99.90;;;;;;5013420;28;20042;-78
2022/05/13 06:59:43;;;;;;;0.30;0.30;;;14.30;99.90;;;;;;5030782;28;20061;-78
2022/05/13 07:02:08;;;;;;;;;;;14.40;99.90;;;;;;5030123;28;20045;-74
2022/05/13 07:04:34;;;;;;;0.30;0.30;;;14.50;99.90;;;;;;5043300;28;19931;-77
2022/05/13 07:07:01;;;;;;;0.40;0.40;;;14.40;99.90;;;;;;5061582;28;20091;-75
2022/05/13 07:09:27;;;;;;;0.65;0.65;;;14.50;99.90;;;;;;5070419;28;20041;-73
2022/05/13 07:11:54;;;;;;;0.68;0.68;;;14.50;99.90;;;;;;5036554;28;20098;-75
2022/05/13 07:14:20;;;;;;;0.28;0.28;;;14.40;99.90;;;;;;5047309;28;20106;-79
2022/05/13 07:16:46;;;;;;;0.30;0.30;;;14.30;99.90;;;;;;5031420;28;20137;-76
2022/05/13 07:19:12;;;;;;;0.43;0.43;;;14.30;99.90;;;;;;5035531;28;20073;-77
2022/05/13 07:21:37;;;;;;;;;;;14.20;99.90;;;;;;5016170;28;20486;-78
2022/05/13 07:24:03;;;;;;;0.38;0.38;;;14.20;99.90;;;;;;5043982;28;19917;-77
2022/05/13 07:26:29;;;;;;;;;;;14.20;99.90;;;;;;5015761;28;20076;-75
2022/05/13 07:28:55;;;;;;;1.00;0.95;;;14.40;99.90;;;;;;5014210;28;19956;-76
2022/05/13 07:31:21;;;;;;;0.30;0.30;;;14.70;99.90;;;;;;5013224;28;20048;-74
2022/05/13 07:33:48;;;;;;;0.32;0.32;;;14.90;99.90;;;;;;5046803;28;20037;-76
2022/05/13 07:36:13;;;;;;;;;;;15.10;99.90;;;;;;5032288;28;20041;-75
2022/05/13 07:41:16;;;;;;;0.40;0.40;;;15.20;99.90;;;;;;5018479;28;20377;-76
2022/05/13 07:41:26;;;;;;;0.63;0.52;;;15.40;99.90;;;;;;5046678;28;20060;-76
2022/05/13 07:43:52;;;;;;;0.80;0.80;;;15.30;99.90;;;;;;5031780;28;20498;-79
2022/05/13 07:46:18;;;;;;;0.30;0.30;;;15.20;99.90;;;;;;5003857;28;20128;-79
2022/05/13 07:48:44;;;;;;;;;;;15.20;99.90;;;;;;5029730;28;20037;-78
2022/05/13 07:51:11;;;;;;;0.30;0.30;;;15.20;99.90;;;;;;5041409;28;19932;-80
2022/05/13 07:53:38;;;;;;;0.50;0.50;;;15.10;99.90;;;;;;5027065;28;20426;-79
2022/05/13 07:56:04;;;;;;;2.20;0.40;;;15.20;99.90;;;;;;5024096;28;20127;-76
2022/05/13 07:58:30;;;;;;;0.38;0.38;;;15.20;99.90;;;;;;5036648;28;20045;-74
2022/05/13 08:00:56;;;;;;;;;;;15.00;99.90;;;;;;5020549;28;20743;-79
2022/05/13 08:03:22;;;;;;;0.40;0.40;;;15.00;99.90;;;;;;5015048;28;19932;-77
2022/05/13 08:05:50;;;;;;;0.32;0.32;;;14.90;99.90;;;;;;5030182;28;20046;-79
2022/05/13 08:08:29;;;;;;;0.30;0.30;;;15.00;99.90;;;;;;5023318;28;20680;-81
2022/05/13 08:10:58;;;;;;;3.85;0.65;;;15.00;99.90;;;;;;5037761;28;20107;-78
2022/05/13 08:13:25;;;;;;;0.60;0.60;;;14.90;99.90;;;;;;5042776;28;20041;-78
2022/05/13 08:15:51;;;;;;;;;;;14.80;99.90;;;;;;5027695;28;20560;-76
2022/05/13 08:18:18;;;;;;;0.63;0.60;;;14.90;99.90;;;;;;5028253;28;19921;-78
2022/05/13 08:20:46;;;;;;;0.75;0.60;;;15.00;99.90;;;;;;5032389;28;20049;-79
2022/05/13 08:23:12;;;;;;;0.25;0.25;;;15.00;99.90;;;;;;5020175;28;20056;-76
2022/05/13 08:25:41;;;;;;;0.95;0.85;;;15.10;99.90;;;;;;5017477;28;20458;-81
2022/05/13 08:28:09;;;;;;;0.30;0.30;;;15.10;99.90;;;;;;5027815;28;20061;-78
2022/05/13 08:30:36;;;;;;;0.40;0.40;;;15.00;99.90;;;;;;5011724;28;20175;-80
2022/05/13 08:33:02;;;;;;;0.20;0.20;;;14.90;99.90;;;;;;5012491;28;20034;-75
2022/05/13 08:35:31;;;;;;;0.28;0.28;;;14.90;99.90;;;;;;5030515;28;20084;-76
2022/05/13 08:37:57;;;;;;;0.30;0.30;;;14.90;99.90;;;;;;5024459;28;20029;-75
2022/05/13 08:40:40;;;;;;;0.43;0.43;;;15.00;99.90;;;;;;5026906;28;20043;-76
2022/05/13 08:43:12;;;;;;;0.50;0.50;;;15.20;99.90;;;;;;5054116;28;20045;-73
2022/05/13 08:45:42;;;;;;;0.57;0.57;;;15.40;99.90;;;;;;5037101;28;20041;-76
2022/05/13 08:48:13;;;;;;;0.30;0.30;;;15.60;99.90;;;;;;5050505;28;20106;-74
2022/05/13 08:50:50;;;;;;;0.35;0.35;;;15.80;99.90;;;;;;5034830;28;20061;-76
2022/05/13 08:53:34;;;;;;;0.57;0.57;;;15.70;99.90;;;;;;5048614;28;20037;-76
2022/05/13 08:56:07;;;;;;;1.23;0.90;;;15.60;99.90;;;;;;5036845;28;20080;-74
2022/05/13 08:58:37;;;;;;;0.22;0.22;;;15.40;99.90;;;;;;5036974;28;20040;-75
2022/05/13 09:01:09;;;;;;;0.40;0.40;;;15.20;99.90;;;;;;5010194;28;20038;-75
2022/05/13 09:03:39;;;;;;;0.60;0.60;;;15.00;99.90;;;;;;5026058;28;20038;-72
2022/05/13 09:06:12;;;;;;;0.30;0.30;;;15.00;99.90;;;;;;5041899;28;20443;-75
2022/05/13 09:08:44;;;;;;;0.35;0.35;;;15.40;99.90;;;;;;5055358;28;20123;-75
2022/05/13 09:11:28;;;;;;;0.20;0.20;;;15.90;99.90;;;;;;5025033;28;20164;-75
2022/05/13 09:14:32;;;;;;;0.40;0.40;;;16.10;99.90;;;;;;5036520;28;20053;-75
2022/05/13 09:17:29;;;;;;;0.32;0.32;;;16.10;99.90;;;;;;5045827;28;20520;-76
2022/05/13 09:20:06;;;;;;;0.52;0.52;;;16.00;99.90;;;;;;5051249;28;20098;-75
2022/05/13 09:22:58;;;;;;;0.25;0.25;;;15.80;99.90;;;;;;5045895;28;20053;-76
2022/05/13 09:25:58;;;;;;;0.50;0.50;;;15.90;99.90;;;;;;5043692;28;20045;-74
2022/05/13 09:28:26;;;;;;;0.30;0.30;;;16.10;99.90;;;;;;5047069;28;20049;-76
2022/05/13 09:31:03;;;;;;;0.40;0.40;;;16.20;99.90;;;;;;5045629;28;20183;-75
2022/05/13 09:33:38;;;;;;;0.38;0.38;;;16.10;99.90;;;;;;5038591;28;20058;-77
2022/05/13 09:36:06;;;;;;;0.25;0.25;;;15.90;99.90;;;;;;5022210;28;20083;-74
2022/05/13 09:38:41;;;;;;;0.70;0.70;;;16.00;99.90;;;;;;5056123;28;20392;-75
2022/05/13 09:41:10;;;;;;;0.30;0.30;;;16.20;99.90;;;;;;5019735;28;20107;-77
2022/05/13 09:43:57;;;;;;;0.20;0.20;;;16.30;99.90;;;;;;5032749;28;20442;-76
2022/05/13 09:46:42;;;;;;;0.40;0.40;;;16.30;99.90;;;;;;5034204;28;20465;-75
2022/05/13 09:49:38;;;;;;;0.43;0.43;;;16.10;99.90;;;;;;5044110;28;20076;-78
2022/05/13 09:52:29;;;;;;;0.30;0.30;;;15.90;99.90;;;;;;5019654;28;20061;-75
2022/05/13 09:54:56;;;;;;;0.43;0.43;;;15.70;99.90;;;;;;5049735;28;20077;-75
2022/05/13 09:57:28;;;;;;;0.50;0.50;;;15.60;99.90;;;;;;5018719;28;20044;-77
2022/05/13 10:00:07;;;;;;;0.50;0.50;;;15.50;99.90;;;;;;5032459;28;20163;-73
2022/05/13 10:02:36;;;;;;;0.50;0.50;;;15.50;99.90;;;;;;5032949;28;20037;-76
2022/05/13 10:05:15;;;;;;;0.38;0.38;;;15.50;99.90;;;;;;5034389;28;20049;-80
2022/05/13 10:07:53;;;;;;;0.40;0.40;;;15.50;99.90;;;;;;5037465;28;20493;-78
2022/05/13 10:16:19;;;;;;;0.38;0.38;;;16.00;99.90;;;;;;5038800;28;20140;-75
2022/05/13 10:19:07;;;;;;;0.40;0.40;;;16.40;99.90;;;;;;5014782;28;20137;-75
2022/05/13 10:21:50;;;;;;;0.75;0.75;;;16.70;99.90;;;;;;5048029;28;20047;-77
2022/05/13 10:24:50;;;;;;;0.30;0.30;;;17.00;99.90;;;;;;5052611;28;20081;-76
2022/05/13 10:27:45;;;;;;;0.40;0.40;;;17.20;99.90;;;;;;5007967;28;20510;-76
2022/05/13 10:30:26;;;;;;;0.40;0.40;;;17.50;99.90;;;;;;5033572;28;20041;-75
2022/05/13 10:33:08;;;;;;;2.08;1.30;;;17.70;99.90;;;;;;5010376;28;20442;-76
2022/05/13 10:35:51;;;;;;;0.40;0.40;;;17.70;99.90;;;;;;5019956;28;20053;-73
2022/05/13 10:38:16;;;;;;;0.30;0.30;;;17.80;99.90;;;;;;4994209;28;20050;-74
2022/05/13 10:40:45;;;;;;;;;;;17.90;99.90;;;;;;5032285;28;20042;-75
2022/05/13 10:43:37;;;;;;;0.30;0.30;;;18.00;99.90;;;;;;5034285;28;19943;-73
2022/05/13 10:46:45;;;;;;;0.38;0.38;;;17.90;99.90;;;;;;5014430;28;20573;-74
2022/05/13 10:49:13;;;;;;;0.20;0.20;;;17.90;99.90;;;;;;5002220;28;20145;-74
2022/05/13 10:51:41;;;;;;;0.28;0.28;;;17.80;99.90;;;;;;5020518;28;20072;-74
2022/05/13 10:54:25;;;;;;;0.40;0.40;;;17.70;99.90;;;;;;5041585;28;20076;-75
2022/05/13 10:57:20;;;;;;;0.40;0.40;;;17.70;99.90;;;;;;5047200;28;20030;-75
2022/05/13 11:00:09;;;;;;;0.30;0.30;;;18.00;99.90;;;;;;5016231;28;20443;-75
2022/05/13 11:02:57;;;;;;;1.17;0.77;;;18.00;99.90;;;;;;5046592;28;20124;-76
2022/05/13 11:05:37;;;;;;;0.20;0.20;;;18.00;99.90;;;;;;5033235;28;20104;-77
2022/05/13 11:08:44;;;;;;;0.30;0.30;;;17.70;99.90;;;;;;5041307;28;20048;-76
2022/05/13 11:11:52;;;;;;;0.30;0.30;;;17.40;99.90;;;;;;5036089;28;20080;-73
2022/05/13 11:14:21;;;;;;;0.88;0.88;;;17.00;99.90;;;;;;5033467;28;20376;-74
2022/05/13 11:17:20;;;;;;;0.40;0.40;;;16.70;99.90;;;;;;5033085;28;20406;-75
2022/05/13 11:20:16;;;;;;;0.30;0.30;;;16.60;99.90;;;;;;5050068;28;20044;-77
2022/05/13 11:23:03;;;;;;;0.28;0.28;;;16.50;99.90;;;;;;5054203;28;20073;-73
2022/05/13 11:25:57;;;;;;;0.40;0.40;;;16.50;99.90;;;;;;5032440;28;20065;-76
2022/05/13 11:28:51;;;;;;;0.40;0.40;;;16.60;99.90;;;;;;5036468;28;20037;-75
2022/05/13 11:32:01;;;;;;;0.40;0.40;;;16.50;99.90;;;;;;5032136;28;20491;-74
2022/05/13 11:34:36;;;;;;;0.30;0.30;;;16.40;99.90;;;;;;5024347;28;20060;-75
2022/05/13 11:37:08;;;;;;;0.50;0.50;;;16.50;99.90;;;;;;5039220;28;20408;-74
2022/05/13 11:40:07;;;;;;;0.47;0.47;;;16.70;99.90;;;;;;5013837;28;20095;-74
2022/05/13 11:43:18;;;;;;;0.50;0.50;;;16.90;99.90;;;;;;5026339;28;20398;-76
2022/05/13 11:45:55;;;;;;;0.30;0.30;;;17.00;99.90;;;;;;5036405;28;20112;-76
2022/05/13 11:48:44;;;;;;;0.60;0.50;;;17.30;99.90;;;;;;5021823;28;20073;-77
2022/05/13 11:51:18;;;;;;;0.35;0.35;;;17.20;99.90;;;;;;5030485;28;20148;-73
2022/05/13 11:53:44;;;;;;;0.47;0.47;;;17.00;99.90;;;;;;5045066;28;20064;-77
2022/05/13 11:56:13;;;;;;;;;;;17.00;99.90;;;;;;5047014;28;20038;-75
2022/05/13 11:58:45;;;;;;;0.80;0.80;;;17.10;99.90;;;;;;5027315;28;20230;-76
2022/05/13 12:01:12;;;;;;;0.22;0.22;;;17.00;99.90;;;;;;5033475;28;20048;-74
2022/05/13 12:03:39;;;;;;;0.50;0.50;;;17.20;99.90;;;;;;5027606;28;20041;-77
2022/05/13 12:06:10;;;;;;;1.85;1.00;;;17.30;99.90;;;;;;5038099;28;20060;-75
2022/05/13 12:08:36;;;;;;;0.30;0.30;;;17.20;99.90;;;;;;5028026;28;20057;-74
2022/05/13 12:11:02;;;;;;;;;;;17.00;99.90;;;;;;5039284;28;20045;-76
2022/05/13 12:13:52;;;;;;;0.30;0.30;;;17.00;99.90;;;;;;5036670;28;20523;-73
2022/05/13 12:16:42;;;;;;;0.45;0.45;;;16.90;99.90;;;;;;5050247;28;20550;-73
2022/05/13 12:19:31;;;;;;;0.22;0.22;;;16.80;99.90;;;;;;5050915;28;20052;-75
2022/05/13 12:22:27;;;;;;;0.85;0.52;;;16.90;99.90;;;;;;5029390;28;20045;-75
2022/05/13 12:25:05;;;;;;;0.40;0.40;;;17.00;99.90;;;;;;5026290;28;20057;-74
2022/05/13 12:27:39;;;;;;;0.40;0.40;;;17.20;99.90;;;;;;5021807;28;20041;-74
2022/05/13 12:30:29;;;;;;;0.35;0.35;;;17.40;99.90;;;;;;5050247;28;20046;-74
2022/05/13 12:32:55;;;;;;;0.40;0.40;;;17.80;99.90;;;;;;5045991;28;20045;-76
2022/05/13 12:38:22;;;;;;;0.30;0.30;;;18.00;99.90;;;;;;5032391;28;20049;-73
2022/05/13 12:41:01;;;;;;;0.30;0.30;;;17.90;99.90;;;;;;5040405;28;20132;-75
2022/05/13 12:44:10;;;;;;;0.30;0.30;;;17.70;99.90;;;;;;5055612;28;20474;-75
2022/05/13 12:46:46;;;;;;;0.40;0.40;;;17.40;99.90;;;;;;4991120;28;20064;-74
2022/05/13 12:49:20;;;;;;;0.38;0.38;;;17.80;99.90;;;;;;5033927;28;20049;-75
2022/05/13 12:52:14;;;;;;;0.40;0.40;;;18.00;99.90;;;;;;5054938;28;20506;-73
2022/05/13 12:54:51;;;;;;;0.50;0.50;;;18.10;99.90;;;;;;5043675;28;20045;-78
2022/05/13 12:57:22;;;;;;;;;;;18.30;99.90;;;;;;5036165;28;20068;-75
2022/05/13 12:59:52;;;;;;;2.67;1.73;;;18.20;99.90;;;;;;5028885;28;19928;-75
2022/05/13 13:02:24;;;;;;;0.90;0.90;;;17.90;99.90;;;;;;5048389;28;20061;-77
2022/05/13 13:05:20;;;;;;;0.30;0.30;;;18.00;99.90;;;;;;5011270;28;20056;-76
2022/05/13 13:07:46;;;;;;;0.77;0.63;;;18.10;99.90;;;;;;5022951;28;20048;-77
2022/05/13 13:10:18;;;;;;;0.50;0.50;;;18.10;99.90;;;;;;5021336;28;20051;-75
2022/05/13 13:13:09;;;;;;;0.30;0.30;;;18.10;99.90;;;;;;5054053;28;20037;-75
2022/05/13 13:15:54;;;;;;;0.45;0.45;;;18.10;99.80;;;;;;5046529;28;20041;-75
2022/05/13 13:18:30;;;;;;;0.63;0.63;;;18.00;99.90;;;;;;5019317;28;20100;-77
2022/05/13 13:21:03;;;;;;;0.28;0.28;;;17.70;97.60;;;;;;5030879;28;20102;-77
2022/05/13 13:23:35;;;;;;;1.52;1.38;;;17.60;97.90;;;;;;5036720;28;20120;-76
2022/05/13 13:26:02;;;;;;;0.40;0.40;;;17.80;98.10;;;;;;5043973;28;20494;-75
2022/05/13 13:28:34;;;;;;;0.40;0.40;;;18.10;99.00;;;;;;5055099;28;20037;-75
2022/05/13 13:31:24;;;;;;;0.43;0.43;;;18.30;98.10;;;;;;5038037;28;20156;-75
2022/05/13 13:33:53;;;;;;;0.30;0.30;;;18.50;97.90;;;;;;5052806;28;20454;-79
2022/05/13 13:36:29;;;;;;;0.30;0.30;;;18.90;98.40;;;;;;5049959;28;20106;-79
2022/05/13 13:39:00;;;;;;;0.40;0.40;;;19.10;96.60;;;;;;5045563;28;20486;-75